createdAt,value
2023-03-21T00:01:31.802Z,41.05
2023-03-21T00:04:06.115Z,46.03
2023-03-21T00:06:36.626Z,46.72
2023-03-21T00:09:04.957Z,47.45
2023-03-21T00:11:36.189Z,47.40
2023-03-21T00:14:09.126Z,45.92
2023-03-21T00:16:37.350Z,45.47
2023-03-21T00:19:08.019Z,47.60
2023-03-21T00:21:55.267Z,42.55
2023-03-21T00:24:31.176Z,44.70
2023-03-21T00:27:10.700Z,48.28
2023-03-21T00:30:03.614Z,47.10
2023-03-21T00:32:55.528Z,46.75
2023-03-21T00:41:42.990Z,47.47
2023-03-21T00:44:16.166Z,68.78
2023-03-21T00:47:00.887Z,110.03
2023-03-21T00:50:13.461Z,57.50
2023-03-21T00:52:41.484Z,74.47
2023-03-21T00:55:16.530Z,76.43
2023-03-21T00:58:09.422Z,67.72
2023-03-21T01:03:25.245Z,63.83
2023-03-21T01:06:06.170Z,57.00
2023-03-21T01:08:52.168Z,52.65
2023-03-21T01:11:25.164Z,52.67
2023-03-21T01:14:07.163Z,50.17
2023-03-21T01:16:36.902Z,51.83
2023-03-21T01:19:24.973Z,51.80
2023-03-21T01:22:03.073Z,46.13
2023-03-21T01:24:31.196Z,54.00
2023-03-21T01:27:29.989Z,47.72
2023-03-21T01:29:58.708Z,45.90
2023-03-21T01:32:29.057Z,53.00
2023-03-21T01:35:05.077Z,44.28
2023-03-21T01:37:36.227Z,48.10
2023-03-21T01:40:20.604Z,48.67
2023-03-21T01:43:04.762Z,48.55
2023-03-21T01:46:06.002Z,51.20
2023-03-21T01:48:43.469Z,51.33
2023-03-21T01:51:14.558Z,47.95
2023-03-21T01:56:37.881Z,47.25
2023-03-21T01:59:34.497Z,48.78
2023-03-21T02:02:07.449Z,44.90
2023-03-21T02:04:38.745Z,47.80
2023-03-21T02:07:10.191Z,47.05
2023-03-21T02:09:50.412Z,48.10
2023-03-21T02:12:18.940Z,50.53
2023-03-21T02:14:53.086Z,51.13
2023-03-21T02:17:56.559Z,46.05
2023-03-21T02:21:06.933Z,49.03
2023-03-21T02:24:11.070Z,48.22
2023-03-21T02:27:39.856Z,47.38
2023-03-21T02:34:10.129Z,48.33
2023-03-21T02:37:04.864Z,47.25
2023-03-21T02:40:11.356Z,49.60
2023-03-21T02:43:01.184Z,45.95
2023-03-21T02:46:22.598Z,53.25
2023-03-21T02:49:28.314Z,51.95
2023-03-21T02:52:28.396Z,50.08
2023-03-21T02:55:24.240Z,49.85
2023-03-21T02:58:13.161Z,47.70
2023-03-21T03:01:54.517Z,54.55
2023-03-21T03:04:36.529Z,46.80
2023-03-21T03:07:24.830Z,46.53
2023-03-21T03:10:12.669Z,45.92
2023-03-21T03:13:11.959Z,47.28
2023-03-21T03:15:54.271Z,50.63
2023-03-21T03:19:02.074Z,47.63
2023-03-21T03:22:08.080Z,48.60
2023-03-21T03:24:51.473Z,49.08
2023-03-21T03:27:41.506Z,51.03
2023-03-21T03:30:18.704Z,52.55
2023-03-21T03:33:01.745Z,51.45
2023-03-21T03:35:35.992Z,47.72
2023-03-21T03:38:07.457Z,47.33
2023-03-21T03:40:49.209Z,51.53
2023-03-21T03:43:41.034Z,56.92
2023-03-21T03:49:51.048Z,51.45
2023-03-21T03:52:31.636Z,50.47
2023-03-21T03:55:08.983Z,48.97
2023-03-21T03:57:48.302Z,55.17
2023-03-21T04:00:40.232Z,51.35
2023-03-21T04:09:01.651Z,52.50
2023-03-21T04:11:30.719Z,50.83
2023-03-21T04:14:00.360Z,51.05
2023-03-21T04:16:41.245Z,51.40
2023-03-21T04:19:33.439Z,52.35
2023-03-21T04:22:07.808Z,49.72
2023-03-21T04:24:37.686Z,53.65
2023-03-21T04:30:12.327Z,56.03
2023-03-21T04:32:53.971Z,54.72
2023-03-21T04:35:21.219Z,59.15
2023-03-21T04:37:55.989Z,48.85
2023-03-21T04:43:08.668Z,56.78
2023-03-21T04:45:35.562Z,55.85
2023-03-21T04:48:24.501Z,53.08
2023-03-21T04:50:52.358Z,67.53
2023-03-21T04:53:27.931Z,54.78
2023-03-21T04:55:57.846Z,66.00
2023-03-21T04:58:24.640Z,60.42
2023-03-21T05:00:53.254Z,68.88
2023-03-21T05:03:21.649Z,65.60
2023-03-21T05:05:51.109Z,61.10
2023-03-21T05:08:22.640Z,54.17
2023-03-21T05:11:07.789Z,58.75
2023-03-21T05:13:41.801Z,55.10
2023-03-21T05:16:21.766Z,58.78
2023-03-21T05:18:52.573Z,69.53
2023-03-21T05:21:19.649Z,53.85
2023-03-21T05:24:15.175Z,50.72
2023-03-21T05:27:01.582Z,53.90
2023-03-21T05:29:59.021Z,53.50
2023-03-21T05:32:36.784Z,56.00
2023-03-21T05:35:13.051Z,53.67
2023-03-21T05:43:17.443Z,46.40
2023-03-21T05:46:00.788Z,52.03
2023-03-21T05:51:22.680Z,52.80
2023-03-21T05:54:02.950Z,48.60
2023-03-21T05:56:43.886Z,53.30
2023-03-21T05:59:28.574Z,52.92
2023-03-21T06:01:59.119Z,56.17
2023-03-21T06:04:31.370Z,58.83
2023-03-21T06:06:58.257Z,57.60
2023-03-21T06:09:42.374Z,52.38
2023-03-21T06:12:17.136Z,59.60
2023-03-21T06:14:49.372Z,100.97
2023-03-21T06:17:16.250Z,58.30
2023-03-21T06:19:49.196Z,60.67
2023-03-21T06:22:21.064Z,61.30
2023-03-21T06:24:48.518Z,54.53
2023-03-21T06:27:15.778Z,57.25
2023-03-21T06:29:42.861Z,56.42
2023-03-21T06:32:12.140Z,55.25
2023-03-21T06:34:39.574Z,63.38
2023-03-21T06:37:06.358Z,54.08
2023-03-21T06:39:33.373Z,48.50
2023-03-21T06:42:21.568Z,58.35
2023-03-21T06:44:57.549Z,51.20
2023-03-21T06:47:27.539Z,53.55
2023-03-21T06:49:54.318Z,48.75
2023-03-21T06:52:23.949Z,59.95
2023-03-21T06:54:53.883Z,56.70
2023-03-21T06:58:07.952Z,55.40
2023-03-21T07:01:07.069Z,57.83
2023-03-21T07:03:42.573Z,52.42
2023-03-21T07:06:17.195Z,56.15
2023-03-21T07:08:57.336Z,44.83
2023-03-21T07:11:29.672Z,51.20
2023-03-21T07:16:49.325Z,54.10
2023-03-21T07:19:16.261Z,46.00
2023-03-21T07:21:50.606Z,44.45
2023-03-21T07:24:39.139Z,45.15
2023-03-21T07:27:09.217Z,42.95
2023-03-21T07:29:36.288Z,39.08
2023-03-21T07:32:06.538Z,36.15
2023-03-21T07:34:51.514Z,37.55
2023-03-21T07:37:21.818Z,48.42
2023-03-21T07:39:48.576Z,36.28
2023-03-21T07:42:15.485Z,38.85
2023-03-21T07:44:58.072Z,39.10
2023-03-21T07:47:35.019Z,36.60
2023-03-21T07:50:05.419Z,33.63
2023-03-21T07:52:33.056Z,31.33
2023-03-21T07:55:00.241Z,35.03
2023-03-21T07:57:27.009Z,30.75
2023-03-21T07:59:56.815Z,34.50
2023-03-21T08:02:29.622Z,32.00
2023-03-21T08:05:04.556Z,28.70
2023-03-21T08:07:55.320Z,30.35
2023-03-21T08:10:23.349Z,40.28
2023-03-21T08:12:58.990Z,35.20
2023-03-21T08:15:52.675Z,32.42
2023-03-21T08:18:20.892Z,30.77
2023-03-21T08:21:02.775Z,38.13
2023-03-21T08:23:38.886Z,30.15
2023-03-21T08:26:10.234Z,34.80
2023-03-21T08:28:53.400Z,30.45
2023-03-21T08:31:24.475Z,30.20
2023-03-21T08:33:54.972Z,29.83
2023-03-21T08:36:28.345Z,29.85
2023-03-21T08:39:04.640Z,31.85
2023-03-21T08:41:34.936Z,28.23
2023-03-21T08:44:05.196Z,26.95
2023-03-21T08:46:32.760Z,30.40
2023-03-21T08:48:59.805Z,27.27
2023-03-21T08:51:46.500Z,27.55
2023-03-21T08:57:09.571Z,25.88
2023-03-21T08:59:50.966Z,29.07
2023-03-21T09:02:20.142Z,45.50
2023-03-21T09:04:47.777Z,31.33
2023-03-21T09:07:17.343Z,29.60
2023-03-21T09:09:50.767Z,25.33
2023-03-21T09:12:23.389Z,27.60
2023-03-21T09:14:54.932Z,24.58
2023-03-21T09:17:30.049Z,26.93
2023-03-21T09:20:05.516Z,28.75
2023-03-21T09:22:35.427Z,67.85
2023-03-21T09:25:15.314Z,28.65
2023-03-21T09:27:44.943Z,25.40
2023-03-21T09:30:16.834Z,27.52
2023-03-21T09:35:35.089Z,33.30
2023-03-21T09:38:13.426Z,32.72
2023-03-21T09:41:16.348Z,72.15
2023-03-21T09:44:17.564Z,27.30
2023-03-21T09:47:31.324Z,34.55
2023-03-21T09:50:23.402Z,44.63
2023-03-21T09:53:00.372Z,46.08
2023-03-21T09:58:52.785Z,71.85
2023-03-21T10:01:35.129Z,49.40
2023-03-21T10:04:13.539Z,37.65
2023-03-21T10:06:44.952Z,35.35
2023-03-21T10:09:26.732Z,54.40
2023-03-21T10:12:34.686Z,54.17
2023-03-21T10:15:43.505Z,52.20
2023-03-21T10:18:23.899Z,77.80
2023-03-21T10:20:52.253Z,56.20
2023-03-21T10:23:28.918Z,33.95
2023-03-21T10:26:06.335Z,42.03
2023-03-21T10:28:52.382Z,46.45
2023-03-21T10:31:35.760Z,35.92
2023-03-21T10:36:49.420Z,97.55
2023-03-21T10:39:39.719Z,36.05
2023-03-21T10:42:18.974Z,34.50
2023-03-21T10:44:53.251Z,31.92
2023-03-21T10:47:25.850Z,42.45
2023-03-21T10:50:11.356Z,31.50
2023-03-21T10:52:48.365Z,41.50
2023-03-21T10:55:26.512Z,29.42
2023-03-21T10:57:59.002Z,37.58
2023-03-21T11:00:30.448Z,27.55
2023-03-21T11:02:58.098Z,33.57
2023-03-21T11:05:51.891Z,26.75
2023-03-21T11:08:29.320Z,24.83
2023-03-21T11:11:04.225Z,30.65
2023-03-21T11:13:44.158Z,36.50
2023-03-21T11:16:39.668Z,29.40
2023-03-21T11:19:27.954Z,26.65
2023-03-21T11:22:00.909Z,31.38
2023-03-21T11:24:35.738Z,28.92
2023-03-21T11:27:12.662Z,29.08
2023-03-21T11:29:45.883Z,32.25
2023-03-21T11:32:40.563Z,32.08
2023-03-21T11:35:29.155Z,31.77
2023-03-21T11:37:57.019Z,30.13
2023-03-21T11:40:38.969Z,27.77
2023-03-21T11:43:18.354Z,27.80
2023-03-21T11:46:24.239Z,25.92
2023-03-21T11:48:55.726Z,27.15
2023-03-21T11:55:04.690Z,27.67
2023-03-21T11:57:44.689Z,23.77
2023-03-21T12:00:22.870Z,23.42
2023-03-21T12:03:38.164Z,27.08
2023-03-21T12:06:36.981Z,25.17
2023-03-21T12:09:38.820Z,24.75
2023-03-21T12:12:36.469Z,23.80
2023-03-21T12:15:23.562Z,20.00
2023-03-21T12:18:06.005Z,21.90
2023-03-21T12:23:27.072Z,28.65
2023-03-21T12:26:15.625Z,35.80
2023-03-21T12:29:03.833Z,24.70
2023-03-21T12:31:49.040Z,30.15
2023-03-21T12:34:23.755Z,27.98
2023-03-21T12:37:05.468Z,25.38
2023-03-21T12:39:36.482Z,23.35
2023-03-21T12:42:34.362Z,24.65
2023-03-21T12:45:15.303Z,22.40
2023-03-21T12:47:50.252Z,21.83
2023-03-21T12:50:44.906Z,21.70
2023-03-21T12:53:56.877Z,24.42
2023-03-21T12:57:08.566Z,22.10
2023-03-21T12:59:47.576Z,20.73
2023-03-21T13:03:00.728Z,19.60
2023-03-21T13:08:30.299Z,22.85
2023-03-21T13:11:02.001Z,21.25
2023-03-21T13:14:10.804Z,19.15
2023-03-21T13:16:43.318Z,20.48
2023-03-21T13:19:37.471Z,21.40
2023-03-21T13:22:35.953Z,23.65
2023-03-21T13:25:17.048Z,23.27
2023-03-21T13:27:47.382Z,20.88
2023-03-21T13:30:22.043Z,19.73
2023-03-21T13:33:13.167Z,21.25
2023-03-21T13:35:43.247Z,20.30
2023-03-21T13:38:19.097Z,18.70
2023-03-21T13:40:55.179Z,18.83
2023-03-21T13:43:57.426Z,20.42
2023-03-21T13:46:24.946Z,21.63
2023-03-21T13:48:59.180Z,19.63
2023-03-21T13:51:54.762Z,20.10
2023-03-21T13:54:50.963Z,18.23
2023-03-21T13:57:38.842Z,18.40
2023-03-21T14:00:30.820Z,18.48
2023-03-21T14:03:32.472Z,19.95
2023-03-21T14:05:59.420Z,18.85
2023-03-21T14:08:37.433Z,21.27
2023-03-21T14:11:10.300Z,17.50
2023-03-21T14:13:51.169Z,19.05
2023-03-21T14:16:26.536Z,19.70
2023-03-21T14:19:01.388Z,19.42
2023-03-21T14:21:33.729Z,19.65
2023-03-21T14:26:37.914Z,17.15
2023-03-21T14:29:22.930Z,20.27
2023-03-21T14:31:51.745Z,17.83
2023-03-21T14:34:19.042Z,17.52
2023-03-21T14:36:58.782Z,17.67
2023-03-21T14:39:37.556Z,21.30
2023-03-21T14:42:15.129Z,19.50
2023-03-21T14:44:56.809Z,20.00
2023-03-21T14:47:27.894Z,19.02
2023-03-21T14:50:09.946Z,17.85
2023-03-21T14:52:45.481Z,24.90
2023-03-21T14:55:16.758Z,25.67
2023-03-21T14:57:43.806Z,25.95
2023-03-21T15:00:31.548Z,28.08
2023-03-21T15:03:00.160Z,18.95
2023-03-21T15:05:34.369Z,32.78
2023-03-21T15:08:07.647Z,37.65
2023-03-21T15:10:35.508Z,30.88
2023-03-21T15:13:20.946Z,32.15
2023-03-21T15:15:55.252Z,33.30
2023-03-21T15:18:35.514Z,20.25
2023-03-21T15:21:14.359Z,28.63
2023-03-21T15:23:47.118Z,20.58
2023-03-21T15:26:22.670Z,18.90
2023-03-21T15:28:58.607Z,21.63
2023-03-21T15:31:36.604Z,18.83
2023-03-21T15:34:24.097Z,34.53
2023-03-21T15:37:02.523Z,25.30
2023-03-21T15:39:38.910Z,32.83
2023-03-21T15:42:27.208Z,21.15
2023-03-21T15:45:00.497Z,24.02
2023-03-21T15:48:06.760Z,18.85
2023-03-21T15:51:11.849Z,28.02
2023-03-21T15:53:47.847Z,31.77
2023-03-21T15:56:17.839Z,27.10
2023-03-21T15:58:54.221Z,35.83
2023-03-21T16:01:47.227Z,20.63
2023-03-21T16:04:14.620Z,19.13
2023-03-21T16:07:02.699Z,23.08
2023-03-21T16:09:42.868Z,105.28
2023-03-21T16:12:25.343Z,69.13
2023-03-21T16:14:56.854Z,82.28
2023-03-21T16:18:03.929Z,62.70
2023-03-21T16:20:46.078Z,59.40
2023-03-21T16:23:22.881Z,53.90
2023-03-21T16:26:07.271Z,55.67
2023-03-21T16:28:37.122Z,47.15
2023-03-21T16:31:03.989Z,46.58
2023-03-21T16:33:30.883Z,48.45
2023-03-21T16:36:13.431Z,36.67
2023-03-21T16:38:46.173Z,35.47
2023-03-21T16:41:14.633Z,39.05
2023-03-21T16:43:48.292Z,40.85
2023-03-21T16:46:30.873Z,38.03
2023-03-21T16:49:01.829Z,33.35
2023-03-21T16:51:40.248Z,16.90
2023-03-21T16:54:07.303Z,27.35
2023-03-21T16:56:43.067Z,24.38
2023-03-21T16:59:13.238Z,27.75
2023-03-21T17:01:41.590Z,29.63
2023-03-21T17:04:12.809Z,35.30
2023-03-21T17:06:52.510Z,28.42
2023-03-21T17:09:23.262Z,25.45
2023-03-21T17:11:54.322Z,23.10
2023-03-21T17:14:52.872Z,28.58
2023-03-21T17:17:34.996Z,22.85
2023-03-21T17:20:41.150Z,27.98
2023-03-21T17:23:26.452Z,25.05
2023-03-21T17:26:11.109Z,23.25
2023-03-21T17:28:49.327Z,22.55
2023-03-21T17:31:32.018Z,25.40
2023-03-21T17:34:01.794Z,19.27
2023-03-21T17:36:50.555Z,29.98
2023-03-21T17:39:39.985Z,32.13
2023-03-21T17:42:35.689Z,24.77
2023-03-21T17:45:07.969Z,23.50
2023-03-21T17:47:54.416Z,22.55
2023-03-21T17:50:51.873Z,19.73
2023-03-21T17:53:46.917Z,23.50
2023-03-21T17:56:26.074Z,14.25
2023-03-21T17:59:07.643Z,21.88
2023-03-21T18:01:38.534Z,23.88
2023-03-21T18:04:25.902Z,23.85
2023-03-21T18:07:18.485Z,21.63
2023-03-21T18:10:02.032Z,19.65
2023-03-21T18:12:29.810Z,14.88
2023-03-21T18:15:14.344Z,25.15
2023-03-21T18:17:57.611Z,17.73
2023-03-21T18:20:49.859Z,25.70
2023-03-21T18:23:14.873Z,15.75
2023-03-21T18:25:42.665Z,22.67
2023-03-21T18:31:11.243Z,18.50
2023-03-21T18:33:41.239Z,15.43
2023-03-21T18:36:10.142Z,24.00
2023-03-21T18:38:37.382Z,19.48
2023-03-21T18:41:06.604Z,21.70
2023-03-21T18:44:06.100Z,21.48
2023-03-21T18:46:50.858Z,14.88
2023-03-21T18:52:15.043Z,22.70
2023-03-21T18:54:50.651Z,15.93
2023-03-21T18:57:38.895Z,14.13
2023-03-21T19:03:35.382Z,19.05
2023-03-21T19:09:14.402Z,26.60
2023-03-21T19:11:53.600Z,20.27
2023-03-21T19:14:32.466Z,22.55
2023-03-21T19:20:17.118Z,18.05
2023-03-21T19:22:44.280Z,26.83
2023-03-21T19:25:41.201Z,25.52
2023-03-21T19:28:25.892Z,25.77
2023-03-21T19:31:03.110Z,23.13
2023-03-21T19:33:31.903Z,25.13
2023-03-21T19:39:13.352Z,25.45
2023-03-21T19:41:43.065Z,21.88
2023-03-21T19:44:28.785Z,26.27
2023-03-21T19:46:59.900Z,24.48
2023-03-21T19:49:45.664Z,23.60
2023-03-21T19:52:18.967Z,26.60
2023-03-21T19:54:46.296Z,19.90
2023-03-21T19:57:17.714Z,23.02
2023-03-21T19:59:59.243Z,22.90
2023-03-21T20:02:36.394Z,25.53
2023-03-21T20:05:11.665Z,19.30
2023-03-21T20:07:45.306Z,29.58
2023-03-21T20:10:22.326Z,15.82
2023-03-21T20:12:51.808Z,16.13
2023-03-21T20:15:22.126Z,25.33
2023-03-21T20:20:38.447Z,22.30
2023-03-21T20:23:11.669Z,23.17
2023-03-21T20:25:43.310Z,24.38
2023-03-21T20:28:17.285Z,26.65
2023-03-21T20:34:00.391Z,24.13
2023-03-21T20:36:39.411Z,22.60
2023-03-21T20:39:18.276Z,29.95
2023-03-21T20:41:45.041Z,22.40
2023-03-21T20:44:48.075Z,24.35
2023-03-21T20:47:09.305Z,25.33
2023-03-21T20:49:40.211Z,23.05
2023-03-21T20:55:17.666Z,23.40
2023-03-21T20:57:48.268Z,24.38
2023-03-21T21:00:17.624Z,21.45
2023-03-21T21:02:46.223Z,19.13
2023-03-21T21:05:28.770Z,21.60
2023-03-21T21:08:07.537Z,23.08
2023-03-21T21:11:49.688Z,21.27
2023-03-21T21:13:53.848Z,23.27
2023-03-21T21:16:27.748Z,23.58
2023-03-21T21:18:57.351Z,22.20
2023-03-21T21:21:26.019Z,21.42
2023-03-21T21:24:00.311Z,21.35
2023-03-21T21:27:02.683Z,27.05
2023-03-21T21:29:29.997Z,20.48
2023-03-21T21:32:11.802Z,24.50
2023-03-21T21:34:38.833Z,26.70
2023-03-21T21:37:05.807Z,20.35
2023-03-21T21:39:38.907Z,20.48
2023-03-21T21:42:08.817Z,19.60
2023-03-21T21:44:54.096Z,23.05
2023-03-21T21:47:46.639Z,19.65
2023-03-21T21:50:29.903Z,18.00
2023-03-21T21:53:12.267Z,16.52
2023-03-21T21:55:45.374Z,19.30
2023-03-21T21:58:21.455Z,16.55
2023-03-21T22:01:06.700Z,15.50
2023-03-21T22:03:53.854Z,18.95
2023-03-21T22:06:31.121Z,19.95
2023-03-21T22:09:02.607Z,13.05
2023-03-21T22:11:41.763Z,16.48
2023-03-21T22:14:21.265Z,17.25
2023-03-21T22:22:42.260Z,15.50
2023-03-21T22:25:15.649Z,18.15
2023-03-21T22:27:45.944Z,14.27
2023-03-21T22:30:18.150Z,20.40
2023-03-21T22:33:02.743Z,16.52
2023-03-21T22:35:37.630Z,19.02
2023-03-21T22:38:24.707Z,22.00
2023-03-21T22:43:43.875Z,18.38
2023-03-21T22:46:16.939Z,17.95
2023-03-21T22:48:56.319Z,20.75
2023-03-21T22:51:26.518Z,21.30
2023-03-21T22:53:56.504Z,20.00
2023-03-21T22:56:23.970Z,18.60
2023-03-21T22:58:57.527Z,20.17
2023-03-21T23:01:24.364Z,20.35
2023-03-21T23:03:56.838Z,24.52
2023-03-21T23:06:26.384Z,21.67
2023-03-21T23:09:03.903Z,23.95
2023-03-21T23:11:39.020Z,19.92
2023-03-21T23:14:08.363Z,20.52
2023-03-21T23:16:59.254Z,21.48
2023-03-21T23:19:56.209Z,18.00
2023-03-21T23:23:15.673Z,20.23
2023-03-21T23:25:59.935Z,20.85
2023-03-21T23:28:39.989Z,18.70
2023-03-21T23:31:18.741Z,17.77
2023-03-21T23:34:03.727Z,18.02
2023-03-21T23:36:34.837Z,21.67
2023-03-21T23:39:24.259Z,19.25
2023-03-21T23:42:06.188Z,19.80
2023-03-21T23:44:35.560Z,20.60
2023-03-21T23:47:11.547Z,23.17
2023-03-21T23:49:41.201Z,23.17
2023-03-21T23:52:11.352Z,34.95
2023-03-21T23:57:28.694Z,46.80
2023-03-21T23:59:57.331Z,33.80
